Idaho Falls, ID

1:46 PM MDT on September 01, 2014 (GMT -0600)
Idaho Falls High School | Change Station
CLOSE
Current Station
Personal Weather Station
Location: Idaho Falls, ID
Elevation: 4715 ft
Nearby Weather Stations

Elev 4715 ft 43.49 °N, 112.02 °W | Updated 2 seconds ago

Clear
Clear
68.4 °F
Feels Like 68.4 °F
N
11.5
Wind Variable Wind from SW
Gusts 11.5 mph

Today
High -- | Low -- °F
--% Chance of Precip.
Yesterday
High -- | Low -- °F
Precip. -- in
6:51 AM 8:02 PM
Waxing Crescent, 43% visible
Pressure 30.01 in
Visibility 10.0 miles
Clouds Few 8000 ft
Dew Point 37 °F
Humidity 32%
Rainfall 0.00 in
Snow Depth Not available.
UV 8 out of 12
Pollen 8.00 out of 12
PM2.5 Good
Flu Activity Not available.
METAR KIDA 011853Z VRB04KT 10SM FEW080 19/04 A3010 RMK AO2 SLP161 T01890039

More Conditions Fewer Conditions

Pressure 30.01 in
Visibility 10.0 miles
Clouds Few 8000 ft
Dew Point 37 °F
Humidity 32%
Rainfall 0.00 in
Snow Depth Not available.
UV 8 out of 12
Pollen 8.00 out of 12
PM2.5 Good
Flu Activity Not available.
METAR KIDA 011853Z VRB04KT 10SM FEW080 19/04 A3010 RMK AO2 SLP161 T01890039

More Conditions Fewer Conditions

10-Day Weather Forecast

Almanac

Astronomy

Sep. 01, 2014 Rise Set
Actual Time 6:51 AM MDT 8:02 PM MDT
Civil Twilight 6:21 AM MDT 8:31 PM MDT
Nautical Twilight 5:46 AM MDT 9:07 PM MDT
Astronomical Twilight 5:08 AM MDT 9:44 PM MDT
Moon 1:52 PM MDT 11:54 PM MDT
Length of Visible Light 14h 10m
Length of Day
13h 11m
Tomorrow will be 2m 53s shorter.
Waxing Crescent, 43% of the Moon is Illuminated
Today
Waxing Crescent
Sep 2
First Quarter
Sep 8
Full
Sep 15
Last Quarter
Sep 24
New

Today's Extremes

State Highs State Lows

Community

WunderPhotos

Upload Photos

1,749,387 photos uploaded!

WunderBlogs® & News

Nearby

Air Quality

  Air Quality AQ Index Pollutant
Yesterday Good
PM2.5
Current Good
PM2.5
Monday Good
PM2.5
Tuesday Good
PM2.5
Wednesday Good
PM2.5

Snow Depth

Station Depth Elevation
Sheep Mountain 0 in 6570 ft
Somsen Ranch 0 in 6800 ft
Wildhorse Divide 0 in 6490 ft
White Elephant 0 in 7710 ft
Emigrant Summit 0 in 7390 ft

Earthquake Activity

City Distance Mag. Time & Date
Driggs, Idaho 48 miles 3.8 2:09 PM MDT
2014-08-30
Minimum magnitude displayed is 2.5.

Coastal Water Temperatures

Place Temperature
No Stations Reporting

Nearby Weather Stations